Time;durP1;ratioP1;P1;durP2;ratioP2;P2;SDS_P1;SDS_P2;PMS_P1;PMS_P2;Temp;Humidity;BMP_temperature;BMP_pressure;BME280_temperature;BME280_humidity;BME280_pressure;Samples;Min_cycle;Max_cycle;Signal;HPM_P1;HPM_P2
2022/10/19 00:01:10;;;;;;;32.95;20.23;;;14.30;99.90;;;13.71;100.00;97670.91;6205656;23;20027;-69
2022/10/19 00:03:37;;;;;;;38.13;22.17;;;14.30;99.90;;;13.72;100.00;97667.38;6201479;23;20025;-69
2022/10/19 00:06:24;;;;;;;41.88;23.48;;;14.30;99.90;;;13.76;100.00;97666.28;6203716;23;20083;-69
2022/10/19 00:08:55;;;;;;;31.83;20.17;;;14.30;99.90;;;13.71;100.00;97672.69;6205634;23;20071;-69
2022/10/19 00:11:23;;;;;;;36.47;22.08;;;14.40;99.90;;;13.67;100.00;97656.34;6205005;23;20028;-69
2022/10/19 00:13:52;;;;;;;40.60;24.77;;;14.30;99.90;;;13.74;100.00;97651.66;6204056;23;20320;-69
2022/10/19 00:16:20;;;;;;;29.20;20.17;;;14.30;99.90;;;13.67;100.00;97658.97;6203183;23;20024;-69
2022/10/19 00:18:47;;;;;;;60.20;26.33;;;14.30;99.90;;;13.64;100.00;97661.75;6205139;23;20036;-69
2022/10/19 00:21:18;;;;;;;51.88;25.27;;;14.20;99.90;;;13.56;100.00;97662.13;6206295;23;20095;-69
2022/10/19 00:23:45;;;;;;;34.53;22.73;;;14.20;99.90;;;13.53;100.00;97656.25;6205277;23;20021;-67
2022/10/19 00:26:12;;;;;;;43.08;23.23;;;14.20;99.90;;;13.59;100.00;97653.31;6229844;23;20025;-69
2022/10/19 00:28:41;;;;;;;47.45;25.02;;;14.10;99.90;;;13.55;100.00;97651.81;6207314;23;20476;-69
2022/10/19 00:31:12;;;;;;;36.80;22.27;;;14.10;99.90;;;13.49;100.00;97652.13;6203501;23;20099;-69
2022/10/19 00:33:41;;;;;;;32.47;21.48;;;14.10;99.90;;;13.49;100.00;97649.50;6201845;23;20535;-69
2022/10/19 00:36:31;;;;;;;34.55;21.52;;;14.20;99.90;;;13.54;100.00;97648.31;6203860;23;20488;-69
2022/10/19 00:38:59;;;;;;;44.72;24.27;;;14.20;99.90;;;13.54;100.00;97656.16;6206233;23;20032;-69
2022/10/19 00:41:30;;;;;;;38.95;22.67;;;14.30;99.90;;;13.56;100.00;97656.09;6203100;23;20441;-68
2022/10/19 00:44:02;;;;;;;36.65;22.40;;;14.30;99.90;;;13.51;100.00;97653.72;6205434;23;20028;-68
2022/10/19 00:46:36;;;;;;;48.17;23.90;;;14.20;99.90;;;13.60;100.00;97644.56;6205863;23;20030;-69
2022/10/19 00:49:10;;;;;;;30.08;19.17;;;14.20;99.90;;;13.65;100.00;97641.72;6202916;23;20020;-68
2022/10/19 00:51:41;;;;;;;34.28;21.27;;;14.20;99.90;;;13.58;100.00;97644.63;6202036;23;20024;-69
2022/10/19 00:54:09;;;;;;;41.33;23.75;;;14.20;99.90;;;13.61;100.00;97646.22;6204074;23;20040;-68
2022/10/19 00:56:40;;;;;;;35.40;22.52;;;14.20;99.90;;;13.60;100.00;97655.84;6204787;23;20085;-69
2022/10/19 00:59:08;;;;;;;38.05;22.42;;;14.30;99.90;;;13.53;100.00;97649.28;6202072;23;20028;-69
2022/10/19 01:01:35;;;;;;;36.67;24.20;;;14.30;99.90;;;13.57;100.00;97645.56;6206882;23;20123;-69
2022/10/19 01:04:03;;;;;;;41.42;23.42;;;14.30;99.90;;;13.65;100.00;97634.72;6204482;23;20024;-69
2022/10/19 01:06:31;;;;;;;56.72;30.27;;;14.40;99.90;;;13.57;100.00;97637.75;6204690;23;20035;-69
2022/10/19 01:08:58;;;;;;;53.13;29.02;;;14.40;99.90;;;13.57;100.00;97632.53;6207174;23;20020;-69
2022/10/19 01:11:46;;;;;;;44.70;27.20;;;14.30;99.90;;;13.66;100.00;97627.72;6204917;23;20020;-69
2022/10/19 01:14:41;;;;;;;49.03;28.75;;;14.20;99.90;;;13.53;100.00;97632.78;6205496;23;20030;-69
2022/10/19 01:18:00;;;;;;;49.75;28.92;;;14.20;99.90;;;13.50;100.00;97633.78;6203894;23;20020;-68
2022/10/19 01:21:33;;;;;;;53.30;29.75;;;14.10;99.90;;;13.48;100.00;97626.94;6205201;23;20381;-68
2022/10/19 01:24:50;;;;;;;53.40;31.17;;;14.00;99.90;;;13.35;100.00;97632.84;6178472;23;20024;-69
2022/10/19 01:27:34;;;;;;;53.65;30.63;;;13.90;99.90;;;13.35;100.00;97639.81;6203584;23;20537;-68
2022/10/19 01:30:32;;;;;;;50.90;29.52;;;13.90;99.90;;;13.34;100.00;97638.97;6205844;23;20397;-69
2022/10/19 01:33:10;;;;;;;48.90;29.98;;;13.70;99.90;;;13.33;100.00;97633.84;6182512;23;20135;-69
2022/10/19 01:35:59;;;;;;;49.22;28.17;;;13.90;99.90;;;13.25;100.00;97636.81;6205385;23;20024;-69
2022/10/19 01:38:42;;;;;;;43.80;25.38;;;13.90;99.90;;;13.33;100.00;97634.66;6178501;23;20031;-69
2022/10/19 01:41:20;;;;;;;38.08;23.85;;;13.90;99.90;;;13.34;100.00;97631.16;6205392;23;20021;-69
2022/10/19 01:44:07;;;;;;;49.00;27.60;;;13.90;99.90;;;13.29;100.00;97634.91;6204689;23;20029;-69
2022/10/19 01:46:44;;;;;;;42.63;25.60;;;13.90;99.90;;;13.36;100.00;97623.22;6204550;23;20033;-69
2022/10/19 01:49:19;;;;;;;53.30;29.20;;;13.90;99.90;;;13.35;100.00;97629.38;6204495;23;20077;-69
2022/10/19 01:51:53;;;;;;;54.20;29.55;;;13.90;99.90;;;13.33;100.00;97629.47;6202162;23;20028;-69
2022/10/19 01:54:23;;;;;;;37.90;25.05;;;13.90;99.90;;;13.38;100.00;97624.00;6205193;23;20031;-69
2022/10/19 01:56:52;;;;;;;42.35;25.77;;;13.90;99.90;;;13.52;100.00;97620.66;6204937;23;20024;-68
2022/10/19 01:59:21;;;;;;;59.88;29.73;;;14.00;99.90;;;13.48;100.00;97619.13;6203714;23;20511;-69
2022/10/19 02:01:50;;;;;;;56.25;30.13;;;14.10;99.90;;;13.58;100.00;97612.50;6203998;23;20028;-69
2022/10/19 02:04:20;;;;;;;37.03;24.58;;;14.10;99.90;;;13.62;100.00;97601.00;6202421;23;20502;-69
2022/10/19 02:06:50;;;;;;;37.83;24.30;;;14.20;99.90;;;13.70;100.00;97595.34;6204262;23;20511;-69
2022/10/19 02:09:19;;;;;;;53.38;28.92;;;14.20;99.90;;;13.58;100.00;97591.66;6202907;23;20407;-68
2022/10/19 02:11:58;;;;;;;62.88;32.92;;;14.20;99.90;;;13.49;100.00;97584.31;6205811;23;20020;-69
2022/10/19 02:14:32;;;;;;;57.97;29.65;;;14.10;99.90;;;13.45;100.00;97580.19;6204161;23;20032;-69
2022/10/19 02:17:08;;;;;;;42.55;26.45;;;14.10;99.90;;;13.48;100.00;97578.28;6203835;23;20025;-69
2022/10/19 02:19:36;;;;;;;43.42;26.23;;;14.10;99.90;;;13.50;100.00;97573.81;6202689;23;20024;-69
2022/10/19 02:22:03;;;;;;;44.75;27.48;;;14.20;99.90;;;13.55;100.00;97569.19;6206699;23;20028;-69
2022/10/19 02:24:30;;;;;;;50.50;27.85;;;14.10;99.90;;;13.60;100.00;97572.38;6204912;23;20028;-69
2022/10/19 02:26:59;;;;;;;57.17;31.02;;;14.20;99.90;;;13.60;100.00;97566.31;6203547;23;20040;-69
2022/10/19 02:29:26;;;;;;;44.92;26.77;;;14.20;99.90;;;13.62;100.00;97561.03;6205724;23;20365;-69
2022/10/19 02:31:54;;;;;;;51.13;26.77;;;;;;;13.75;100.00;97564.63;6204985;23;20036;-69
2022/10/19 02:34:21;;;;;;;44.13;25.02;;;14.30;99.90;;;13.75;100.00;97562.00;6205069;23;20565;-69
2022/10/19 02:36:48;;;;;;;40.25;24.42;;;14.40;99.90;;;13.79;100.00;97559.16;6205532;23;20047;-66
2022/10/19 02:39:15;;;;;;;41.67;24.80;;;14.40;99.90;;;13.68;100.00;97569.34;6205931;23;20078;-69
2022/10/19 02:42:16;;;;;;;36.10;24.70;;;14.30;99.90;;;13.67;100.00;97561.63;6177106;23;20025;-68
2022/10/19 02:45:08;;;;;;;46.22;26.73;;;14.30;99.90;;;13.72;100.00;97547.38;6225542;23;20028;-69
2022/10/19 02:47:43;;;;;;;45.95;26.25;;;14.30;99.90;;;13.50;100.00;97547.75;6204616;23;20025;-69
2022/10/19 02:50:11;;;;;;;63.53;30.88;;;14.30;99.90;;;13.48;100.00;97548.72;6203164;23;20032;-68
2022/10/19 02:52:40;;;;;;;69.15;31.90;;;14.20;99.90;;;13.42;100.00;97549.91;6204047;23;20021;-69
2022/10/19 02:55:08;;;;;;;55.38;28.70;;;14.10;99.90;;;13.46;100.00;97542.78;6203555;23;20035;-69
2022/10/19 02:57:35;;;;;;;71.38;33.15;;;14.10;99.90;;;13.35;100.00;97553.78;6205829;23;20079;-69
2022/10/19 03:00:06;;;;;;;65.90;29.75;;;14.10;99.90;;;13.39;100.00;97552.69;6204946;23;20511;-69
2022/10/19 03:02:35;;;;;;;73.13;31.13;;;14.00;99.90;;;13.37;100.00;97550.16;6228240;23;20027;-69
2022/10/19 03:05:03;;;;;;;65.93;30.02;;;14.00;99.90;;;13.25;100.00;97556.03;6203710;23;20029;-68
2022/10/19 03:07:30;;;;;;;51.30;27.17;;;13.90;99.90;;;13.23;100.00;97543.97;6205243;23;20024;-69
2022/10/19 03:09:58;;;;;;;77.43;29.70;;;13.90;99.90;;;13.22;100.00;97542.31;6205932;23;20066;-69
2022/10/19 03:12:24;;;;;;;83.78;32.05;;;13.80;99.90;;;13.17;100.00;97545.16;6204700;23;20028;-69
2022/10/19 03:14:51;;;;;;;107.47;32.17;;;13.80;99.90;;;13.13;100.00;97547.06;6201425;23;20025;-69
2022/10/19 03:17:18;;;;;;;59.90;28.50;;;13.80;99.90;;;13.09;100.00;97556.00;6202948;23;20031;-69
2022/10/19 03:19:45;;;;;;;93.30;33.58;;;13.80;99.90;;;13.07;100.00;97560.44;6203509;23;20021;-69
2022/10/19 03:22:13;;;;;;;75.40;31.63;;;13.70;99.90;;;13.04;100.00;97560.59;6204295;23;20040;-69
2022/10/19 03:24:40;;;;;;;80.95;34.08;;;13.70;99.90;;;12.99;100.00;97557.38;6203824;23;20191;-69
2022/10/19 03:27:07;;;;;;;56.63;28.02;;;13.60;99.90;;;13.01;100.00;97563.38;6206467;23;20017;-69
2022/10/19 03:29:34;;;;;;;80.97;32.78;;;13.70;99.90;;;12.98;100.00;97563.53;6204494;23;20587;-70
2022/10/19 03:32:01;;;;;;;85.32;33.03;;;13.60;99.90;;;12.90;100.00;97566.53;6205210;23;20037;-68
2022/10/19 03:34:27;;;;;;;81.18;31.73;;;13.60;99.90;;;12.93;100.00;97561.19;6204766;23;20025;-68
2022/10/19 03:36:55;;;;;;;70.35;30.75;;;13.60;99.90;;;12.88;100.00;97564.94;6205301;23;20567;-68
2022/10/19 03:39:22;;;;;;;92.20;33.08;;;13.60;99.90;;;12.83;100.00;97570.38;6206172;23;20301;-68
2022/10/19 03:41:49;;;;;;;50.38;24.40;;;13.50;99.90;;;12.79;100.00;97573.22;6205042;23;20027;-68
2022/10/19 03:44:16;;;;;;;130.43;31.92;;;13.60;99.90;;;12.77;100.00;97576.75;6205485;23;20055;-68
2022/10/19 03:46:43;;;;;;;69.78;27.58;;;13.50;99.90;;;12.73;100.00;97577.81;6201447;23;20107;-68
2022/10/19 03:49:10;;;;;;;118.07;29.80;;;13.40;99.90;;;12.66;100.00;97586.03;6205845;23;20031;-69
2022/10/19 03:51:37;;;;;;;112.47;28.80;;;13.40;99.90;;;12.60;100.00;97591.56;6204410;23;20025;-68
2022/10/19 03:54:10;;;;;;;80.85;26.08;;;13.30;99.90;;;12.50;100.00;97589.41;6206053;23;20020;-68
2022/10/19 03:56:37;;;;;;;;;;;13.30;99.90;;;12.47;100.00;97593.91;6207257;23;20021;-68
2022/10/19 03:59:05;;;;;;;236.27;33.13;;;13.20;99.90;;;12.45;100.00;97594.03;6204899;23;19924;-68
2022/10/19 04:01:37;;;;;;;112.88;27.02;;;13.10;99.90;;;12.43;100.00;97595.84;6205674;23;20558;-68
2022/10/19 04:04:10;;;;;;;269.60;36.00;;;13.20;99.90;;;12.33;100.00;97603.25;6181163;23;20020;-68
2022/10/19 04:06:41;;;;;;;275.52;33.13;;;13.10;99.90;;;12.41;100.00;97602.88;6204830;23;20027;-68
2022/10/19 04:09:12;;;;;;;450.92;40.47;;;13.10;99.90;;;12.31;100.00;97599.88;6206935;23;20112;-68
2022/10/19 04:11:39;;;;;;;214.50;32.75;;;13.00;99.90;;;12.28;100.00;97599.19;6203739;23;20120;-68
2022/10/19 04:14:07;;;;;;;243.55;30.38;;;13.00;99.90;;;12.29;100.00;97587.84;6204365;23;20075;-68
2022/10/19 04:16:38;;;;;;;393.98;38.38;;;13.00;99.90;;;12.23;100.00;97599.44;6203962;23;20039;-68
2022/10/19 04:19:05;;;;;;;469.20;43.60;;;12.90;99.90;;;12.14;100.00;97590.31;6207552;23;20346;-69
2022/10/19 04:21:36;;;;;;;69.32;25.90;;;12.80;99.90;;;12.25;100.00;97595.00;6207051;23;20102;-68
2022/10/19 04:24:13;;;;;;;87.60;25.73;;;12.90;99.90;;;12.31;100.00;97601.63;6203028;23;20016;-68
2022/10/19 04:26:49;;;;;;;143.90;26.20;;;12.90;99.90;;;12.30;100.00;97594.78;6203694;23;20027;-68
2022/10/19 04:29:19;;;;;;;77.75;21.10;;;13.00;99.90;;;12.34;100.00;97591.94;6203787;23;20021;-68
2022/10/19 04:31:51;;;;;;;265.42;31.45;;;13.00;99.90;;;12.39;100.00;97585.66;6206223;23;20052;-69
2022/10/19 04:34:18;;;;;;;313.23;34.25;;;13.00;99.90;;;12.33;100.00;97587.63;6203673;23;20353;-68
2022/10/19 04:36:45;;;;;;;291.80;32.50;;;13.00;99.90;;;12.36;100.00;97581.44;6204988;23;20029;-68
2022/10/19 04:39:12;;;;;;;339.17;37.33;;;13.10;99.90;;;12.34;100.00;97585.91;6206678;23;20024;-69
2022/10/19 04:41:39;;;;;;;245.52;30.67;;;13.00;99.90;;;12.31;100.00;97589.47;6206437;23;20039;-68
2022/10/19 04:44:06;;;;;;;176.32;26.08;;;13.00;99.90;;;12.41;100.00;97579.47;6206029;23;20044;-68
2022/10/19 04:46:34;;;;;;;443.17;43.22;;;13.10;99.90;;;12.29;100.00;97585.25;6203655;23;20025;-68
2022/10/19 04:49:03;;;;;;;177.57;29.70;;;13.00;99.90;;;12.42;100.00;97586.34;6214441;23;20024;-68
2022/10/19 04:51:29;;;;;;;47.80;23.70;;;13.10;99.90;;;12.45;100.00;97586.22;6219950;23;20099;-68
2022/10/19 04:53:57;;;;;;;74.20;23.65;;;13.10;99.90;;;12.49;100.00;97577.31;6221562;23;20024;-69
2022/10/19 04:56:26;;;;;;;175.60;32.10;;;13.10;99.90;;;12.38;100.00;97584.81;6219128;23;20413;-68
2022/10/19 04:58:58;;;;;;;58.60;22.25;;;13.10;99.90;;;12.43;100.00;97588.03;6217124;23;20546;-68
2022/10/19 05:01:28;;;;;;;38.53;20.75;;;13.20;99.90;;;12.62;100.00;97585.34;6208394;23;20031;-68
2022/10/19 05:04:00;;;;;;;64.25;23.77;;;13.20;99.90;;;12.63;100.00;97580.97;6204019;23;20044;-68
2022/10/19 05:06:29;;;;;;;43.25;21.45;;;13.20;99.90;;;12.66;100.00;97578.22;6206311;23;20016;-68
2022/10/19 05:08:57;;;;;;;65.85;26.13;;;13.30;99.90;;;12.51;100.00;97590.25;6206180;23;20028;-68
2022/10/19 05:11:24;;;;;;;47.05;24.45;;;13.30;99.90;;;12.52;100.00;97582.38;6204928;23;20096;-68
2022/10/19 05:13:52;;;;;;;154.95;32.00;;;13.30;99.90;;;12.50;100.00;97579.00;6204803;23;20032;-68
2022/10/19 05:16:21;;;;;;;153.98;31.35;;;13.20;99.90;;;12.52;100.00;97578.91;6205265;23;20024;-68
2022/10/19 05:18:50;;;;;;;104.78;27.45;;;13.20;99.90;;;12.59;100.00;97579.44;6202594;23;20028;-68
2022/10/19 05:21:19;;;;;;;82.45;28.10;;;13.30;99.90;;;12.51;100.00;97572.84;6206874;23;20038;-68
2022/10/19 05:23:50;;;;;;;63.95;28.15;;;13.30;99.90;;;12.60;100.00;97570.72;6206515;23;20029;-68
2022/10/19 05:26:20;;;;;;;51.40;24.88;;;13.30;99.90;;;12.53;100.00;97565.81;6203394;23;20024;-68
2022/10/19 05:28:55;;;;;;;79.47;29.23;;;13.30;99.90;;;12.50;100.00;97568.59;6203248;23;20025;-68
2022/10/19 05:31:28;;;;;;;89.53;31.67;;;13.20;99.90;;;12.52;100.00;97574.56;6204553;23;20119;-69
2022/10/19 05:33:56;;;;;;;59.03;28.83;;;13.20;99.90;;;12.54;100.00;97569.25;6205804;23;20028;-68
2022/10/19 05:36:28;;;;;;;70.18;29.95;;;13.20;99.90;;;12.57;100.00;97571.72;6205745;23;20032;-68
2022/10/19 05:38:57;;;;;;;69.60;28.87;;;13.30;99.90;;;12.59;100.00;97567.28;6204522;23;20377;-68
2022/10/19 05:41:25;;;;;;;60.85;25.70;;;13.30;99.90;;;12.62;100.00;97561.91;6201304;23;20551;-68
2022/10/19 05:43:55;;;;;;;82.72;29.10;;;13.30;99.90;;;12.62;100.00;97551.50;6205180;23;20381;-68
2022/10/19 05:46:23;;;;;;;115.88;31.67;;;13.30;99.90;;;12.57;100.00;97548.28;6206535;23;20032;-68
2022/10/19 05:48:50;;;;;;;88.00;29.17;;;13.30;99.90;;;12.51;100.00;97544.22;6205727;23;20020;-68
2022/10/19 05:51:19;;;;;;;64.07;28.55;;;13.20;99.90;;;12.56;100.00;97546.59;6213106;23;20027;-68
2022/10/19 05:53:47;;;;;;;51.10;25.33;;;13.30;99.90;;;12.47;100.00;97547.88;6200822;23;20670;-68
2022/10/19 05:56:27;;;;;;;96.35;27.80;;;13.30;99.90;;;12.55;100.00;97537.09;6200510;23;20025;-68
2022/10/19 05:58:56;;;;;;;129.80;28.60;;;13.20;99.90;;;12.39;100.00;97531.00;6205847;23;20032;-68
2022/10/19 06:01:24;;;;;;;200.52;35.53;;;13.20;99.90;;;12.40;100.00;97536.13;6207388;23;20024;-68
2022/10/19 06:03:53;;;;;;;56.20;25.38;;;13.10;99.90;;;12.48;100.00;97533.13;6206386;23;20017;-68
2022/10/19 06:06:20;;;;;;;157.77;31.13;;;13.20;99.90;;;12.52;100.00;97540.72;6203944;23;20024;-69
2022/10/19 06:08:49;;;;;;;108.53;27.08;;;13.10;99.90;;;12.47;100.00;97541.84;6203997;23;20020;-68
2022/10/19 06:11:22;;;;;;;389.48;36.83;;;13.10;99.90;;;12.36;100.00;97545.00;6203028;23;20074;-68
2022/10/19 06:13:53;;;;;;;118.15;26.63;;;13.10;99.90;;;12.33;100.00;97551.19;6203324;23;20098;-68
2022/10/19 06:16:22;;;;;;;102.88;25.58;;;13.10;99.90;;;12.37;100.00;97556.25;6214039;23;20023;-68
2022/10/19 06:18:51;;;;;;;85.57;25.33;;;13.10;99.90;;;12.42;100.00;97557.72;6205260;23;20028;-68
2022/10/19 06:21:22;;;;;;;456.73;41.65;;;13.20;99.90;;;12.43;100.00;97566.34;6201892;23;20116;-68
2022/10/19 06:24:04;;;;;;;352.77;35.78;;;13.10;99.90;;;12.45;100.00;97557.56;6205344;23;20028;-68
2022/10/19 06:26:34;;;;;;;222.98;30.10;;;13.10;99.90;;;12.51;100.00;97564.22;6206089;23;20020;-68
2022/10/19 06:29:03;;;;;;;445.40;37.83;;;13.30;99.90;;;12.48;100.00;97573.03;6205769;23;20039;-68
2022/10/19 06:31:33;;;;;;;153.88;27.00;;;13.30;99.90;;;12.57;100.00;97558.72;6204664;23;20020;-68
2022/10/19 06:34:00;;;;;;;570.15;42.90;;;13.30;99.90;;;12.41;100.00;97560.41;6201387;23;20028;-68
2022/10/19 06:36:30;;;;;;;427.02;35.88;;;13.20;99.90;;;12.42;100.00;97562.91;6203944;23;20036;-68
2022/10/19 06:38:58;;;;;;;73.85;22.52;;;13.20;99.90;;;12.51;100.00;97562.44;6201370;23;20024;-68
2022/10/19 06:41:25;;;;;;;387.92;34.22;;;13.20;99.90;;;12.47;100.00;97570.50;6205968;23;20024;-68
2022/10/19 06:43:54;;;;;;;238.82;27.63;;;13.20;99.90;;;12.45;100.00;97578.41;6200650;23;20033;-68
2022/10/19 06:46:26;;;;;;;269.58;28.35;;;13.20;99.90;;;12.49;100.00;97579.91;6205457;23;20020;-68
2022/10/19 06:48:55;;;;;;;153.18;23.35;;;13.20;99.90;;;12.60;100.00;97574.16;6204407;23;20032;-68
2022/10/19 06:51:24;;;;;;;95.97;21.83;;;13.30;99.90;;;12.67;100.00;97575.53;6202931;23;20024;-68
2022/10/19 06:53:52;;;;;;;120.35;20.90;;;13.30;99.90;;;12.73;100.00;97566.56;6202165;23;20024;-68
2022/10/19 06:56:24;;;;;;;41.55;16.63;;;13.50;99.90;;;12.83;100.00;97562.56;6201646;23;20029;-68
2022/10/19 06:58:52;;;;;;;176.88;22.42;;;13.60;99.90;;;12.83;100.00;97559.94;6200264;23;20024;-68
2022/10/19 07:01:19;;;;;;;174.02;23.80;;;13.60;99.90;;;12.83;100.00;97564.31;6203369;23;20058;-68
2022/10/19 07:03:46;;;;;;;132.32;21.48;;;13.60;99.90;;;12.84;100.00;97556.44;6203312;23;20025;-68
2022/10/19 07:06:13;;;;;;;143.70;21.27;;;13.70;99.90;;;13.02;100.00;97551.19;6202655;23;20032;-68
2022/10/19 07:08:41;;;;;;;177.82;23.40;;;13.80;99.90;;;12.87;100.00;97543.25;6204706;23;20035;-68
2022/10/19 07:11:16;;;;;;;31.52;16.40;;;13.70;99.90;;;13.05;100.00;97536.22;6201684;23;20021;-68
2022/10/19 07:13:43;;;;;;;192.93;25.98;;;13.80;99.90;;;12.96;100.00;97540.16;6202228;23;20044;-68
2022/10/19 07:16:14;;;;;;;63.97;19.00;;;13.80;99.90;;;13.07;100.00;97547.41;6205714;23;20024;-69
2022/10/19 07:18:49;;;;;;;60.03;18.33;;;13.80;99.90;;;13.21;100.00;97540.63;6180416;23;20082;-68
2022/10/19 07:21:17;;;;;;;31.52;16.25;;;13.90;99.90;;;13.35;100.00;97540.75;6202770;23;20025;-69
2022/10/19 07:23:46;;;;;;;253.98;25.42;;;14.00;99.90;;;13.12;100.00;97536.75;6203370;23;20358;-68
2022/10/19 07:26:25;;;;;;;61.08;19.13;;;14.00;99.90;;;13.09;100.00;97536.88;6191354;23;20103;-68
2022/10/19 07:28:55;;;;;;;276.60;24.73;;;13.90;99.90;;;13.03;100.00;97543.28;6206366;23;20024;-68
2022/10/19 07:31:23;;;;;;;227.50;24.15;;;13.90;99.90;;;13.01;100.00;97542.53;6204245;23;20356;-68
2022/10/19 07:33:53;;;;;;;135.38;21.02;;;13.80;99.90;;;12.90;100.00;97537.88;6203754;23;20020;-68
2022/10/19 07:36:21;;;;;;;35.30;14.60;;;13.70;99.90;;;12.98;100.00;97535.72;6203140;23;20052;-68
2022/10/19 07:38:48;;;;;;;119.30;17.17;;;13.70;99.90;;;12.97;100.00;97535.78;6204397;23;20020;-68
2022/10/19 07:41:18;;;;;;;54.90;15.85;;;13.90;99.90;;;13.13;100.00;97546.22;6205681;23;20480;-68
2022/10/19 07:43:47;;;;;;;73.88;14.52;;;13.90;99.90;;;13.00;100.00;97545.19;6203727;23;20035;-68
2022/10/19 07:46:20;;;;;;;66.70;13.85;;;14.00;99.90;;;13.13;100.00;97544.47;6199484;23;20034;-68
2022/10/19 07:48:48;;;;;;;213.80;16.45;;;13.90;99.90;;;12.98;100.00;97540.09;6203333;23;20531;-69
2022/10/19 07:51:17;;;;;;;432.00;25.55;;;13.90;99.90;;;12.91;100.00;97546.56;6204808;23;20044;-68
2022/10/19 07:53:45;;;;;;;145.25;15.00;;;13.90;99.90;;;13.05;100.00;97543.22;6206143;23;20591;-68
2022/10/19 07:56:21;;;;;;;364.33;21.75;;;13.80;99.90;;;12.97;100.00;97546.22;6205743;23;20115;-68
2022/10/19 07:58:51;;;;;;;93.18;15.00;;;13.90;99.90;;;13.05;100.00;97538.84;6201547;23;20028;-69
2022/10/19 08:01:22;;;;;;;34.22;12.52;;;14.00;99.90;;;13.13;100.00;97541.03;6200900;23;20032;-68
2022/10/19 08:03:52;;;;;;;150.18;17.85;;;14.00;99.90;;;12.94;100.00;97541.16;6202723;23;20099;-69
2022/10/19 08:06:39;;;;;;;203.48;21.10;;;13.90;99.90;;;12.92;100.00;97545.63;6202989;23;20079;-68
2022/10/19 08:09:06;;;;;;;121.50;18.80;;;13.80;99.90;;;12.89;100.00;97541.41;6204201;23;20028;-68
2022/10/19 08:11:35;;;;;;;49.33;14.75;;;13.80;99.90;;;13.05;100.00;97532.78;6196296;23;20035;-68
2022/10/19 08:14:03;;;;;;;207.48;20.80;;;13.90;99.90;;;13.01;100.00;97541.69;6198521;23;20753;-68
2022/10/19 08:16:39;;;;;;;114.20;18.83;;;13.90;99.90;;;12.91;100.00;97536.97;6197118;23;20110;-68
2022/10/19 08:19:12;;;;;;;73.20;15.40;;;13.80;99.90;;;13.05;100.00;97532.78;6195100;23;20642;-68
2022/10/19 08:21:43;;;;;;;129.65;20.92;;;13.90;99.90;;;13.03;100.00;97542.44;6196800;23;20063;-68
2022/10/19 08:24:14;;;;;;;80.18;17.73;;;13.90;99.90;;;13.10;100.00;97539.44;6197280;23;20654;-68
2022/10/19 08:26:41;;;;;;;31.33;14.15;;;14.00;99.90;;;13.28;100.00;97527.22;6196061;23;20033;-68
2022/10/19 08:29:15;;;;;;;48.10;17.23;;;14.10;99.90;;;13.33;100.00;97529.56;6196100;23;20028;-68
2022/10/19 08:31:43;;;;;;;85.95;16.95;;;14.30;99.90;;;13.26;100.00;97523.81;6195762;23;20029;-68
2022/10/19 08:34:11;;;;;;;120.32;18.90;;;14.20;99.90;;;13.29;100.00;97522.81;6201277;23;20032;-68
2022/10/19 08:36:38;;;;;;;37.47;14.50;;;14.20;99.90;;;13.35;100.00;97525.94;6213542;23;20021;-69
2022/10/19 08:39:15;;;;;;;79.88;18.45;;;14.30;99.90;;;13.52;100.00;97525.00;6200773;23;20021;-68
2022/10/19 08:42:02;;;;;;;43.58;15.43;;;14.30;99.90;;;13.37;100.00;97518.88;6202002;23;20024;-68
2022/10/19 08:45:20;;;;;;;64.65;17.80;;;14.40;99.90;;;13.26;100.00;97525.56;6200735;23;20423;-67
2022/10/19 08:48:25;;;;;;;118.22;23.48;;;14.30;99.90;;;13.26;100.00;97528.19;6181298;23;20024;-68
2022/10/19 08:50:55;;;;;;;101.63;22.95;;;14.20;99.90;;;13.21;100.00;97518.00;6197509;23;20475;-68
2022/10/19 08:53:53;;;;;;;69.65;20.65;;;14.20;99.90;;;13.08;100.00;97523.03;6201410;23;20047;-68
2022/10/19 08:56:28;;;;;;;85.78;22.70;;;14.00;99.90;;;13.10;100.00;97515.13;6204297;23;20486;-69
2022/10/19 08:59:25;;;;;;;40.65;18.27;;;14.00;99.90;;;13.16;100.00;97502.63;6201112;23;20024;-68
2022/10/19 09:02:20;;;;;;;123.55;25.27;;;14.10;99.90;;;13.01;100.00;97511.25;6202281;23;20023;-68
2022/10/19 09:05:03;;;;;;;48.03;19.63;;;14.00;99.90;;;13.12;100.00;97497.66;6203410;23;20035;-68
2022/10/19 09:07:43;;;;;;;48.60;20.98;;;14.00;99.90;;;13.20;100.00;97508.50;6203294;23;20047;-68
2022/10/19 09:10:17;;;;;;;64.22;22.13;;;14.00;99.90;;;13.19;100.00;97504.22;6202552;23;20034;-68
2022/10/19 09:13:42;;;;;;;38.20;17.60;;;14.10;99.90;;;13.48;100.00;97502.66;6202692;23;20103;-68
2022/10/19 09:16:29;;;;;;;31.45;16.15;;;14.30;99.90;;;13.50;100.00;97500.81;6090611;23;20858;-69
2022/10/19 09:18:57;;;;;;;35.88;17.10;;;14.40;99.90;;;13.53;100.00;97487.59;6204269;23;20016;-70
2022/10/19 09:21:38;;;;;;;32.40;16.88;;;14.50;99.90;;;13.72;100.00;97486.53;6203470;23;20062;-68
2022/10/19 09:24:41;;;;;;;34.40;17.65;;;14.60;99.90;;;13.79;100.00;97482.66;6203904;23;20031;-69
2022/10/19 09:27:23;;;;;;;23.77;15.63;;;14.80;99.90;;;13.85;100.00;97486.69;6197530;23;20027;-68
2022/10/19 09:29:58;;;;;;;25.80;14.95;;;14.90;99.90;;;13.84;100.00;97477.19;6198066;23;20020;-69
2022/10/19 09:32:34;;;;;;;29.73;15.90;;;14.80;99.90;;;13.84;100.00;97485.00;6198742;23;20028;-68
2022/10/19 09:35:14;;;;;;;26.17;14.90;;;14.80;99.90;;;13.91;100.00;97478.50;6202859;23;20024;-68
2022/10/19 09:37:45;;;;;;;21.30;13.52;;;14.90;99.90;;;13.99;100.00;97474.53;6201100;23;20095;-68
2022/10/19 09:40:29;;;;;;;18.87;12.13;;;15.00;99.90;;;14.03;100.00;97459.53;6201254;23;20025;-69
2022/10/19 09:42:57;;;;;;;17.08;11.95;;;15.10;99.90;;;14.28;100.00;97461.53;6205065;23;20272;-69
2022/10/19 09:45:47;;;;;;;23.98;14.45;;;15.20;99.90;;;14.31;100.00;97456.13;6201879;23;20024;-68
2022/10/19 09:48:51;;;;;;;24.02;13.25;;;15.30;99.90;;;14.49;100.00;97448.13;6203417;23;20090;-68
2022/10/19 09:51:19;;;;;;;17.17;11.45;;;15.50;99.90;;;14.35;100.00;97449.81;6209039;23;20077;-68
2022/10/19 09:53:54;;;;;;;17.58;11.65;;;15.50;99.90;;;14.34;100.00;97448.09;6203245;23;20714;-69
2022/10/19 09:56:25;;;;;;;14.73;9.90;;;15.50;99.90;;;14.64;100.00;97442.84;6205822;23;20028;-69
2022/10/19 09:58:56;;;;;;;23.75;12.55;;;15.80;99.90;;;14.59;100.00;97451.88;6203574;23;20031;-69
2022/10/19 10:01:33;;;;;;;17.00;11.82;;;15.80;99.90;;;14.56;100.00;97446.88;6204188;23;20052;-68
2022/10/19 10:04:17;;;;;;;15.10;11.40;;;15.70;99.90;;;14.70;100.00;97446.84;6206058;23;20074;-68
2022/10/19 10:06:47;;;;;;;13.35;10.13;;;15.90;99.90;;;14.63;100.00;97458.63;6201622;23;20032;-68
2022/10/19 10:09:22;;;;;;;15.32;10.73;;;16.10;99.90;;;14.78;100.00;97452.47;6202054;23;20415;-68
2022/10/19 10:11:50;;;;;;;14.88;11.13;;;16.10;99.90;;;15.02;100.00;97450.06;6204549;23;20024;-69
2022/10/19 10:14:28;;;;;;;15.57;10.68;;;16.20;99.90;;;15.09;100.00;97454.94;6203779;23;20035;-69
2022/10/19 10:17:05;;;;;;;13.60;10.50;;;16.20;99.90;;;14.73;100.00;97464.09;6202695;23;20025;-69
2022/10/19 10:19:34;;;;;;;16.33;11.80;;;16.00;99.90;;;14.72;100.00;97473.72;6200160;23;20032;-68
2022/10/19 10:22:03;;;;;;;15.23;10.30;;;16.00;99.90;;;15.07;100.00;97475.94;6203264;23;20119;-68